Time;durP1;ratioP1;P1;durP2;ratioP2;P2;SDS_P1;SDS_P2;PMS_P1;PMS_P2;Temp;Humidity;BMP_temperature;BMP_pressure;BME280_temperature;BME280_humidity;BME280_pressure;Samples;Min_cycle;Max_cycle;Signal;HPM_P1;HPM_P2
2021/08/25 04:24:28;;;;;;;5.27;2.60;;;;;;;11.15;81.37;102468.25;2597503;31;20486;31
2021/08/25 07:04:03;;;;;;;15.90;13.63;;;;;;;16.45;76.10;102319.59;2619994;54;20486;-76
2021/08/25 07:06:28;;;;;;;17.27;13.63;;;;;;;16.53;76.55;102313.72;2620457;54;20147;-78
2021/08/25 07:08:53;;;;;;;16.67;13.87;;;;;;;16.74;76.18;102306.34;2749328;36;20222;-74
2021/08/25 07:11:19;;;;;;;19.43;13.40;;;;;;;16.78;75.83;102304.69;2712049;36;20302;-76
2021/08/25 07:13:44;;;;;;;18.20;13.33;;;;;;;16.87;76.56;102291.91;2810622;36;20829;-77
2021/08/25 07:16:10;;;;;;;15.20;11.87;;;;;;;17.03;76.78;102279.25;2620468;54;20143;-77
2021/08/25 07:18:36;;;;;;;14.53;10.90;;;;;;;17.12;76.63;102274.22;2620448;54;20158;-74
2021/08/25 07:21:03;;;;;;;13.93;10.27;;;;;;;17.20;76.73;102266.56;2620967;54;20254;-76
2021/08/25 07:23:28;;;;;;;11.90;9.57;;;;;;;17.48;76.01;102259.25;2620914;54;20174;-77
2021/08/25 07:25:54;;;;;;;10.53;8.23;;;;;;;17.61;75.69;102265.47;2620716;54;20155;-76
2021/08/25 07:28:19;;;;;;;11.40;8.13;;;;;;;17.95;74.05;102257.28;2656634;36;20205;-76
2021/08/25 07:30:44;;;;;;;10.07;6.63;;;;;;;17.87;73.22;102254.59;2620781;54;20143;-77
2021/08/25 07:33:14;;;;;;;9.10;6.17;;;;;;;17.91;73.23;102251.19;2621304;54;20258;-78
2021/08/25 07:35:41;;;;;;;7.40;4.83;;;;;;;17.83;73.68;102241.59;2620380;54;20162;-77
2021/08/25 07:38:07;;;;;;;6.73;4.87;;;;;;;17.98;73.39;102237.47;2621491;38;20552;-77
2021/08/25 07:40:32;;;;;;;6.93;3.70;;;;;;;18.35;71.68;102237.03;2620676;54;20150;-78
2021/08/25 07:42:57;;;;;;;7.17;3.80;;;;;;;18.75;68.55;102230.50;2620676;54;20146;-77
2021/08/25 07:45:23;;;;;;;6.80;3.60;;;;;;;18.81;68.83;102222.75;2620771;54;20148;-77
2021/08/25 07:47:48;;;;;;;8.37;3.87;;;;;;;19.11;68.60;102222.97;2620801;54;20157;-78
2021/08/25 07:50:14;;;;;;;8.53;3.60;;;;;;;19.05;66.50;102217.72;2621173;54;20187;-79
2021/08/25 07:52:39;;;;;;;4.30;3.10;;;;;;;19.19;65.96;102209.19;2621774;38;20601;-78
2021/08/25 07:55:05;;;;;;;8.27;3.30;;;;;;;19.35;65.97;102208.41;2621347;54;20242;-76
2021/08/25 07:57:30;;;;;;;5.80;2.90;;;;;;;19.47;66.67;102203.31;2620779;38;20774;-78
2021/08/25 07:59:55;;;;;;;7.70;2.80;;;;;;;19.63;64.72;102199.03;2620839;54;20175;-78
2021/08/25 08:02:21;;;;;;;5.73;2.80;;;;;;;19.71;63.72;102187.81;2621279;46;20166;-73
2021/08/25 08:04:46;;;;;;;5.40;2.73;;;;;;;19.94;63.23;102190.50;2621264;54;20171;-75
2021/08/25 08:07:11;;;;;;;3.93;2.40;;;;;;;19.89;64.32;102189.59;2621600;46;20151;-77
2021/08/25 08:09:36;;;;;;;5.10;2.57;;;;;;;19.94;62.67;102191.34;2617770;39;20656;-77
2021/08/25 08:12:02;;;;;;;5.13;2.57;;;;;;;20.03;61.95;102198.31;2617463;46;20163;-78
2021/08/25 08:14:28;;;;;;;4.63;2.30;;;;;;;19.89;62.76;102193.06;2617729;54;20167;-76
2021/08/25 08:16:56;;;;;;;4.00;2.40;;;;;;;19.86;62.93;102192.19;2617181;54;20155;-77
2021/08/25 08:19:29;;;;;;;3.40;2.20;;;;;;;19.82;63.10;102198.25;2617503;54;20138;-77
2021/08/25 08:21:55;;;;;;;2.67;1.97;;;;;;;19.69;63.51;102194.75;2617638;54;20147;-77
2021/08/25 08:24:20;;;;;;;3.40;2.17;;;;;;;19.66;62.98;102192.13;2617443;54;20130;-74
2021/08/25 08:26:46;;;;;;;6.00;2.60;;;;;;;19.52;63.39;102186.00;2617244;54;20135;-77
2021/08/25 08:29:12;;;;;;;7.83;2.13;;;;;;;19.53;63.74;102176.47;2642706;36;20244;-77
2021/08/25 08:31:37;;;;;;;3.50;2.10;;;;;;;19.38;64.20;102176.38;2616545;54;20147;-76
2021/08/25 08:34:02;;;;;;;4.73;1.97;;;;;;;19.34;64.13;102185.06;2616781;54;20131;-76
2021/08/25 08:36:27;;;;;;;3.00;1.90;;;;;;;19.23;65.49;102184.09;2616514;54;20176;-77
2021/08/25 08:38:53;;;;;;;3.00;2.20;;;;;;;19.18;64.33;102180.59;2616708;54;20230;-77
2021/08/25 08:41:18;;;;;;;2.57;1.80;;;;;;;19.36;63.71;102188.53;2616652;46;20159;-75
2021/08/25 08:43:46;;;;;;;6.23;2.23;;;;;;;19.48;63.86;102173.00;2616692;54;20193;-76
2021/08/25 08:46:15;;;;;;;4.40;2.10;;;;;;;19.76;62.25;102170.50;2616437;54;20142;-75
2021/08/25 08:48:41;;;;;;;3.30;1.77;;;;;;;20.03;61.09;102174.91;2616591;39;20564;-75
2021/08/25 08:51:09;;;;;;;6.57;1.77;;;;;;;19.96;61.67;102173.16;2616805;39;20306;-76
2021/08/25 08:53:35;;;;;;;5.60;1.70;;;;;;;20.05;61.40;102154.97;2617292;39;20569;-78
2021/08/25 08:56:00;;;;;;;2.60;1.80;;;;;;;20.25;59.69;102161.09;2616583;54;20171;-77
2021/08/25 08:58:25;;;;;;;4.57;1.70;;;;;;;20.21;59.42;102165.44;2617413;47;20146;-78
2021/08/25 09:00:50;;;;;;;7.10;1.80;;;;;;;20.24;59.51;102161.97;2616869;54;20179;-77
2021/08/25 09:03:27;;;;;;;4.17;1.70;;;;;;;20.21;59.02;102164.56;2617319;54;20974;-75
2021/08/25 09:06:03;;;;;;;6.57;1.73;;;;;;;20.20;59.58;102152.41;2616386;54;20147;-75
2021/08/25 09:08:31;;;;;;;3.53;1.57;;;;;;;20.48;59.30;102146.34;2616618;54;20172;-75
2021/08/25 09:11:12;;;;;;;2.10;1.30;;;;;;;20.79;58.36;102132.44;2616832;54;20128;-75
2021/08/25 09:13:39;;;;;;;4.00;1.60;;;;;;;20.92;57.81;102131.59;2617000;54;20250;-75
2021/08/25 09:16:05;;;;;;;1.77;1.10;;;;;;;21.14;56.65;102120.25;2617109;54;20158;-76
2021/08/25 09:18:32;;;;;;;2.60;1.50;;;;;;;21.11;57.62;102123.75;2616584;54;20156;-76
2021/08/25 09:20:57;;;;;;;3.60;1.50;;;;;;;21.05;57.40;102115.06;2616082;54;20128;-76
2021/08/25 09:23:25;;;;;;;2.87;1.13;;;;;;;20.94;57.18;102101.19;2616514;54;20235;-77
2021/08/25 09:25:57;;;;;;;1.70;1.10;;;;;;;20.93;57.25;102107.28;2616530;54;20156;-77
2021/08/25 09:28:32;;;;;;;1.70;1.13;;;;;;;20.84;57.70;102105.53;2647995;36;20290;-76
2021/08/25 09:31:07;;;;;;;4.43;1.27;;;;;;;21.11;57.70;102100.28;2616463;39;20517;-76
2021/08/25 09:33:38;;;;;;;1.63;1.00;;;;;;;21.12;56.85;102096.81;2615839;54;20142;-75
2021/08/25 09:36:06;;;;;;;2.77;0.77;;;;;;;21.17;55.46;102100.25;2616159;54;20119;-77
2021/08/25 09:38:33;;;;;;;1.67;0.80;;;;;;;21.08;56.95;102097.69;2616440;54;20120;-76
2021/08/25 09:41:07;;;;;;;1.50;0.90;;;;;;;21.09;57.40;102083.78;2616288;54;20227;-77
2021/08/25 09:43:46;;;;;;;1.63;0.90;;;;;;;21.09;56.56;102083.78;2616832;39;20531;-76
2021/08/25 09:46:15;;;;;;;2.50;0.80;;;;;;;21.06;57.90;102086.38;2616331;54;20127;-74
2021/08/25 09:48:46;;;;;;;3.43;1.30;;;;;;;21.08;56.42;102084.66;2633368;36;20246;-75
2021/08/25 09:51:13;;;;;;;3.30;1.40;;;;;;;21.12;56.33;102073.34;2616075;54;20128;-76
2021/08/25 09:53:39;;;;;;;4.27;1.27;;;;;;;21.18;57.25;102077.66;2615871;54;20155;-77
2021/08/25 09:56:22;;;;;;;4.17;1.27;;;;;;;21.21;56.42;102070.72;2620722;36;20124;-75
2021/08/25 09:58:47;;;;;;;3.73;1.30;;;;;;;20.87;57.30;102065.59;2615425;54;20199;-76
2021/08/25 10:01:16;;;;;;;2.73;1.20;;;;;;;20.58;58.81;102065.66;2616455;54;20232;-77
2021/08/25 10:03:41;;;;;;;3.50;1.33;;;;;;;20.52;59.31;102064.78;2616287;54;20163;-76
2021/08/25 10:06:07;;;;;;;6.33;1.23;;;;;;;20.41;60.36;102063.97;2615832;54;20163;-75
2021/08/25 10:08:34;;;;;;;2.17;0.90;;;;;;;20.24;61.02;102050.97;2616300;54;20659;-77
2021/08/25 10:11:00;;;;;;;1.30;0.77;;;;;;;20.37;60.24;102046.59;2616262;54;20675;-77
2021/08/25 10:13:27;;;;;;;1.97;1.10;;;;;;;20.79;59.52;102039.56;2616214;54;20151;-77
2021/08/25 10:15:53;;;;;;;2.40;1.20;;;;;;;21.00;58.11;102028.25;2615706;54;20163;-76
2021/08/25 10:18:27;;;;;;;1.77;0.70;;;;;;;21.33;55.88;102009.84;2616327;54;20174;-77
2021/08/25 10:20:55;;;;;;;1.27;0.70;;;;;;;21.49;56.39;102008.84;2616253;54;20143;-77
2021/08/25 10:23:58;;;;;;;3.00;0.80;;;;;;;21.55;56.16;102014.03;2616232;54;20187;-76
2021/08/25 10:26:24;;;;;;;13.07;1.63;;;;;;;21.53;56.77;102007.97;2616263;54;20151;-77
2021/08/25 10:28:59;;;;;;;4.20;1.00;;;;;;;21.61;55.98;102009.63;2648839;36;20190;-75
2021/08/25 10:31:56;;;;;;;2.10;0.73;;;;;;;21.45;55.76;101994.97;2616124;47;20161;-76
2021/08/25 10:34:22;;;;;;;1.30;0.80;;;;;;;21.29;56.57;101990.72;2616024;54;20195;-77
2021/08/25 10:36:48;;;;;;;1.40;0.80;;;;;;;21.11;58.17;101993.47;2616093;54;20131;-77
2021/08/25 10:39:28;;;;;;;1.97;0.70;;;;;;;21.04;57.84;101999.56;2616051;54;20127;-76
2021/08/25 10:41:54;;;;;;;1.10;0.87;;;;;;;21.00;58.67;101991.78;2616011;54;20135;-75
2021/08/25 10:44:40;;;;;;;2.67;0.90;;;;;;;20.92;57.67;101991.78;2633632;36;20190;-77
2021/08/25 10:47:10;;;;;;;1.73;0.60;;;;;;;21.06;56.33;101978.72;2615768;54;20158;-77
2021/08/25 10:49:40;;;;;;;4.23;0.90;;;;;;;20.85;56.79;101974.44;2616090;54;20138;-76
2021/08/25 10:52:18;;;;;;;1.37;0.73;;;;;;;20.67;57.16;101963.22;2615850;54;20169;-77
2021/08/25 10:54:45;;;;;;;2.20;0.90;;;;;;;20.58;58.25;101958.91;2615848;54;20123;-76
2021/08/25 10:57:13;;;;;;;2.93;1.03;;;;;;;20.63;58.46;101951.09;2616057;54;20155;-76
2021/08/25 10:59:40;;;;;;;3.30;1.13;;;;;;;20.41;59.64;101955.50;2616189;54;20227;-77
2021/08/25 11:02:05;;;;;;;1.93;0.90;;;;;;;20.34;60.53;101953.78;2615933;54;20683;-77
2021/08/25 11:04:30;;;;;;;2.23;1.10;;;;;;;20.43;60.21;101956.38;2616195;54;20138;-76
2021/08/25 11:07:09;;;;;;;2.70;1.20;;;;;;;20.45;59.54;101948.56;2615831;47;20296;-75
2021/08/25 11:09:41;;;;;;;4.77;1.00;;;;;;;20.29;60.35;101941.66;2633584;36;20777;-76
2021/08/25 11:12:14;;;;;;;3.00;1.10;;;;;;;20.38;59.87;101941.63;2615563;54;20590;-74
2021/08/25 11:14:54;;;;;;;2.23;1.10;;;;;;;20.23;60.43;101941.69;2616207;39;20803;-76
2021/08/25 11:17:25;;;;;;;2.73;0.90;;;;;;;20.20;59.68;101933.88;2615394;54;20166;-76
2021/08/25 11:19:57;;;;;;;3.03;0.80;;;;;;;20.18;59.30;101931.28;2615864;54;20131;-76
2021/08/25 11:22:31;;;;;;;3.20;1.00;;;;;;;19.90;60.84;101928.72;2632682;36;20218;-74
2021/08/25 11:25:10;;;;;;;2.67;1.07;;;;;;;19.87;60.46;101918.31;2615629;54;20124;-76
2021/08/25 11:27:37;;;;;;;2.30;1.07;;;;;;;19.70;61.67;101918.31;2615426;54;20665;-74
2021/08/25 11:30:20;;;;;;;2.97;1.20;;;;;;;20.04;59.28;101912.19;2648807;36;20190;-74
2021/08/25 11:32:49;;;;;;;2.83;1.00;;;;;;;19.91;60.26;101896.63;2615719;54;20180;-76
2021/08/25 11:35:23;;;;;;;2.00;0.80;;;;;;;19.95;60.03;101881.00;2615616;54;20116;-73
2021/08/25 11:37:49;;;;;;;2.40;1.00;;;;;;;20.05;60.76;101876.66;2615874;54;20243;-76
2021/08/25 11:40:14;;;;;;;2.13;1.13;;;;;;;20.41;58.40;101855.75;2615655;54;20140;-75
2021/08/25 11:42:39;;;;;;;3.90;1.40;;;;;;;20.69;57.17;101852.97;2615893;54;20135;-76
2021/08/25 11:45:19;;;;;;;2.83;1.20;;;;;;;20.82;56.21;101836.41;2616514;54;20123;-76
2021/08/25 11:47:54;;;;;;;3.60;1.20;;;;;;;20.70;55.71;101848.66;2616522;54;20135;-76
2021/08/25 11:50:23;;;;;;;5.77;1.17;;;;;;;20.64;56.60;101846.94;2616522;54;20160;-76
2021/08/25 11:52:49;;;;;;;5.40;1.30;;;;;;;20.54;56.24;101847.03;2616409;54;20123;-76
2021/08/25 11:55:15;;;;;;;2.73;1.10;;;;;;;20.46;57.05;101843.59;2616853;54;20124;-76
2021/08/25 11:57:49;;;;;;;4.63;1.50;;;;;;;20.47;57.08;101846.19;2616928;39;20563;-76
2021/08/25 12:00:17;;;;;;;2.57;1.10;;;;;;;20.54;56.61;101852.22;2616995;54;20152;-77
2021/08/25 12:02:57;;;;;;;3.57;1.30;;;;;;;20.55;57.01;101846.16;2617259;54;20166;-76
2021/08/25 12:05:27;;;;;;;3.40;1.17;;;;;;;20.72;56.33;101852.97;2615365;47;20123;-78
2021/08/25 12:08:14;;;;;;;6.60;1.60;;;;;;;20.64;57.27;101848.69;2615237;54;20144;-75
2021/08/25 12:11:02;;;;;;;3.50;1.30;;;;;;;20.60;56.85;101849.59;2615353;54;20700;-76
2021/08/25 12:13:44;;;;;;;3.80;1.20;;;;;;;20.56;56.86;101850.47;2615631;39;20567;-76
2021/08/25 12:16:23;;;;;;;3.20;1.23;;;;;;;20.42;57.14;101845.34;2616878;39;20630;-77
2021/08/25 12:18:50;;;;;;;3.97;1.17;;;;;;;20.28;57.86;101843.66;2616509;54;20671;-77
2021/08/25 12:21:16;;;;;;;5.33;1.33;;;;;;;20.23;58.70;101842.81;2616302;54;20127;-76
2021/08/25 12:23:55;;;;;;;6.47;1.50;;;;;;;20.12;58.57;101836.78;2616735;54;20189;-75
2021/08/25 12:26:21;;;;;;;4.23;1.30;;;;;;;20.12;58.56;101831.56;2633893;36;20813;-77
2021/08/25 12:28:46;;;;;;;4.10;1.27;;;;;;;20.11;58.10;101825.53;2649411;36;20206;-76
2021/08/25 12:31:13;;;;;;;6.30;1.77;;;;;;;20.18;58.24;101819.41;2616579;54;20243;-76
2021/08/25 12:33:39;;;;;;;2.33;1.17;;;;;;;20.10;58.62;101830.72;2616552;54;20151;-75
2021/08/25 12:36:27;;;;;;;4.00;1.20;;;;;;;20.12;58.59;101819.44;2616425;54;20163;-76
2021/08/25 12:38:54;;;;;;;2.90;1.17;;;;;;;19.99;59.80;101817.72;2616756;54;20128;-74
2021/08/25 12:41:21;;;;;;;2.83;1.30;;;;;;;19.93;59.62;101819.47;2616388;39;20539;-77
2021/08/25 12:43:47;;;;;;;1.80;1.00;;;;;;;19.91;59.82;101810.81;2616372;54;20190;-77
2021/08/25 12:46:12;;;;;;;3.23;1.03;;;;;;;20.05;59.30;101811.63;2616649;54;20148;-77
2021/08/25 12:48:38;;;;;;;2.30;1.00;;;;;;;19.88;60.51;101805.63;2616068;54;20140;-77
2021/08/25 12:51:03;;;;;;;2.70;1.10;;;;;;;19.67;60.58;101797.91;2617028;54;20115;-75
2021/08/25 12:53:29;;;;;;;3.53;1.37;;;;;;;19.91;59.62;101787.41;2616372;54;20179;-75
2021/08/25 12:55:54;;;;;;;3.63;1.50;;;;;;;19.91;59.29;101785.69;2616371;47;20131;-78
2021/08/25 12:58:19;;;;;;;2.37;1.03;;;;;;;19.92;59.99;101786.53;2634568;36;20302;-75
2021/08/25 13:00:44;;;;;;;1.93;1.00;;;;;;;19.88;60.08;101780.50;2616643;39;20675;-77
2021/08/25 13:03:10;;;;;;;1.97;1.30;;;;;;;19.76;61.14;101779.69;2616746;54;20238;-76
2021/08/25 13:05:35;;;;;;;2.10;1.00;;;;;;;20.01;59.89;101778.69;2616363;54;20243;-75
2021/08/25 13:08:00;;;;;;;4.50;1.23;;;;;;;20.01;59.48;101757.91;2634346;36;20760;-77
2021/08/25 13:10:26;;;;;;;2.43;1.03;;;;;;;20.05;60.05;101759.63;2616733;54;20138;-76
2021/08/25 13:12:51;;;;;;;1.20;0.80;;;;;;;19.96;60.90;101760.53;2616739;54;20727;-76
2021/08/25 13:15:16;;;;;;;2.60;1.23;;;;;;;19.92;60.96;101756.22;2616587;54;20120;-74
2021/08/25 13:17:42;;;;;;;1.43;1.03;;;;;;;20.05;59.91;101750.09;2616510;54;20144;-77
2021/08/25 13:20:07;;;;;;;1.63;0.77;;;;;;;20.08;59.80;101746.66;2616252;54;20282;-76
2021/08/25 13:22:34;;;;;;;2.73;1.07;;;;;;;19.94;60.42;101744.06;2616458;54;20147;-76
2021/08/25 13:24:59;;;;;;;3.83;1.00;;;;;;;19.95;61.13;101735.38;2616959;39;20524;-77
2021/08/25 13:27:24;;;;;;;2.17;1.00;;;;;;;19.94;60.93;101727.59;2616245;54;20215;-77
2021/08/25 13:29:50;;;;;;;1.10;0.90;;;;;;;19.94;61.79;101730.22;2652373;36;20343;-76
2021/08/25 13:32:15;;;;;;;2.20;1.03;;;;;;;19.88;61.70;101727.63;2616255;54;20182;-76
2021/08/25 13:34:40;;;;;;;4.57;1.10;;;;;;;19.82;62.22;101738.03;2616329;54;20903;-75
2021/08/25 13:37:06;;;;;;;7.93;1.37;;;;;;;19.87;61.29;101725.88;2616095;54;20135;-75
2021/08/25 13:39:31;;;;;;;6.23;1.30;;;;;;;19.80;61.91;101724.19;2616522;54;20116;-77
2021/08/25 13:41:58;;;;;;;3.20;0.90;;;;;;;19.81;62.35;101720.72;2616222;54;20182;-76
2021/08/25 13:44:24;;;;;;;4.20;1.00;;;;;;;19.66;63.19;101708.63;2616577;54;20146;-78
2021/08/25 13:46:49;;;;;;;2.07;0.80;;;;;;;19.65;62.97;101711.25;2616676;54;20120;-77
2021/08/25 13:49:14;;;;;;;2.83;1.17;;;;;;;19.67;62.69;101701.72;2616364;54;20127;-74
2021/08/25 13:51:40;;;;;;;2.53;1.20;;;;;;;19.58;63.73;101706.94;2615978;39;20870;-77
2021/08/25 13:54:05;;;;;;;3.43;1.87;;;;;;;19.52;63.79;101701.75;2616760;54;20127;-77
2021/08/25 13:56:30;;;;;;;5.90;1.37;;;;;;;19.60;63.88;101706.06;2616657;54;20135;-76
2021/08/25 13:58:55;;;;;;;2.37;0.90;;;;;;;19.50;64.51;101704.38;2616514;47;20243;-76
2021/08/25 14:01:21;;;;;;;2.93;1.00;;;;;;;19.39;65.18;101695.72;2617019;39;20668;-77
2021/08/25 14:03:46;;;;;;;2.30;0.83;;;;;;;19.54;64.77;101689.63;2616563;46;20255;-76
2021/08/25 14:06:11;;;;;;;16.70;1.77;;;;;;;19.32;66.33;101699.22;2615975;47;20140;-75
2021/08/25 14:08:38;;;;;;;2.53;1.00;;;;;;;19.16;67.36;101692.28;2616733;46;20127;-75
2021/08/25 14:11:13;;;;;;;7.90;0.90;;;;;;;19.03;68.77;101687.97;2616394;54;20140;-77
2021/08/25 14:13:38;;;;;;;2.70;1.00;;;;;;;19.09;68.62;101690.59;2616699;54;20143;-77
2021/08/25 14:16:04;;;;;;;1.30;0.80;;;;;;;19.17;68.14;101675.00;2616106;54;20135;-77
2021/08/25 14:18:29;;;;;;;1.30;1.00;;;;;;;19.03;68.80;101667.22;2616181;54;20127;-77
2021/08/25 14:20:55;;;;;;;1.40;0.80;;;;;;;19.16;67.89;101655.94;2616314;47;20239;-77
2021/08/25 14:23:20;;;;;;;2.37;1.00;;;;;;;18.97;69.33;101662.03;2616325;47;20242;-77
2021/08/25 14:25:45;;;;;;;1.83;0.80;;;;;;;19.04;68.38;101655.09;2616938;39;20636;-77
2021/08/25 14:28:10;;;;;;;1.80;0.90;;;;;;;19.14;68.16;101647.28;2616491;46;20139;-78
2021/08/25 14:30:36;;;;;;;3.37;0.90;;;;;;;19.05;68.69;101654.22;2648156;36;20233;-76
2021/08/25 14:33:01;;;;;;;2.47;0.70;;;;;;;19.02;68.63;101643.88;2616313;54;20159;-75
2021/08/25 14:35:26;;;;;;;0.90;0.73;;;;;;;18.97;68.10;101630.88;2616426;54;20672;-76
2021/08/25 14:37:52;;;;;;;1.50;0.93;;;;;;;19.18;67.53;101637.75;2616242;54;20139;-75
2021/08/25 14:40:17;;;;;;;2.03;0.70;;;;;;;19.02;68.13;101633.47;2616540;54;20739;-75
2021/08/25 14:42:42;;;;;;;2.00;0.87;;;;;;;18.92;69.14;101637.81;2616312;54;20151;-75
2021/08/25 14:45:08;;;;;;;2.50;0.97;;;;;;;18.95;69.34;101626.56;2616421;54;20132;-77
2021/08/25 14:47:33;;;;;;;1.57;0.80;;;;;;;18.92;69.48;101634.34;2616309;54;20150;-78
2021/08/25 14:49:58;;;;;;;1.47;0.60;;;;;;;18.85;69.62;101617.06;2616314;54;20131;-76
2021/08/25 14:52:24;;;;;;;1.00;0.70;;;;;;;18.70;70.51;101611.91;2616489;47;20740;-78
2021/08/25 14:54:49;;;;;;;1.80;0.80;;;;;;;18.86;70.11;101616.19;2616623;54;20134;-76
2021/08/25 14:57:14;;;;;;;1.03;0.80;;;;;;;18.82;70.60;101609.28;2616118;47;20159;-77
2021/08/25 14:59:39;;;;;;;2.13;1.00;;;;;;;18.70;70.69;101602.38;2617008;39;20534;-76
2021/08/25 15:02:05;;;;;;;1.30;0.70;;;;;;;18.64;71.14;101599.78;2634449;36;20155;-78
2021/08/25 15:04:30;;;;;;;1.67;0.70;;;;;;;18.65;71.39;101592.88;2615483;54;20187;-76
2021/08/25 15:06:55;;;;;;;2.97;0.97;;;;;;;18.61;71.62;101588.56;2616487;54;20191;-73
2021/08/25 15:09:20;;;;;;;3.47;0.80;;;;;;;18.60;71.71;101586.84;2616686;47;20247;-78
2021/08/25 15:11:46;;;;;;;2.70;1.20;;;;;;;18.60;72.11;101581.66;2615986;47;20262;-76
2021/08/25 15:14:13;;;;;;;1.50;1.00;;;;;;;18.61;72.32;101566.06;2633432;36;20290;-77
2021/08/25 15:16:39;;;;;;;1.40;0.80;;;;;;;18.65;72.22;101560.00;2615593;54;20146;-77
2021/08/25 15:19:04;;;;;;;2.47;1.20;;;;;;;18.58;71.52;101555.72;2616675;47;20226;-76
2021/08/25 15:21:29;;;;;;;1.47;1.23;;;;;;;18.64;71.78;101560.88;2616997;54;20228;-75
2021/08/25 15:23:56;;;;;;;1.97;1.13;;;;;;;18.51;72.12;101555.72;2616637;54;20759;-75
2021/08/25 15:26:21;;;;;;;3.47;1.60;;;;;;;18.41;71.95;101552.25;2616983;54;20123;-77
2021/08/25 15:28:47;;;;;;;2.53;1.23;;;;;;;18.43;72.31;101549.69;2650463;36;20136;-77
2021/08/25 15:31:13;;;;;;;2.00;1.30;;;;;;;18.60;71.26;101542.75;2617226;54;20132;-76
2021/08/25 15:33:39;;;;;;;2.43;1.60;;;;;;;18.53;71.54;101543.59;2634367;36;20218;-76
2021/08/25 15:36:05;;;;;;;2.70;1.53;;;;;;;18.52;71.90;101534.94;2617429;54;20676;-76
2021/08/25 15:38:30;;;;;;;1.57;1.37;;;;;;;18.34;72.62;101527.19;2617475;54;20223;-78
2021/08/25 15:40:55;;;;;;;1.60;1.40;;;;;;;18.38;72.58;101522.88;2617372;54;20119;-76
2021/08/25 15:43:25;;;;;;;2.47;1.70;;;;;;;18.28;73.38;101524.56;2634989;36;20210;-77
2021/08/25 15:45:50;;;;;;;1.50;1.40;;;;;;;18.35;73.49;101517.69;2616606;54;20155;-77
2021/08/25 15:48:16;;;;;;;1.47;1.37;;;;;;;18.37;73.77;101511.63;2617379;54;20138;-77
2021/08/25 15:50:42;;;;;;;2.00;1.40;;;;;;;18.33;74.67;101517.69;2616932;54;20152;-76
2021/08/25 15:53:07;;;;;;;1.53;1.43;;;;;;;18.21;75.31;101506.44;2617471;54;20132;-76
2021/08/25 15:55:32;;;;;;;2.03;1.43;;;;;;;18.13;75.91;101510.75;2617303;46;20747;-76
2021/08/25 15:57:57;;;;;;;1.83;1.50;;;;;;;18.17;75.96;101500.41;2617115;46;20222;-77
2021/08/25 16:00:23;;;;;;;1.57;1.47;;;;;;;18.03;76.59;101503.84;2617245;54;20227;-76
2021/08/25 16:02:48;;;;;;;1.73;1.30;;;;;;;18.07;76.95;101503.88;2616699;54;20270;-77
2021/08/25 16:05:13;;;;;;;2.50;1.17;;;;;;;18.03;77.17;101494.34;2617332;47;20143;-76
2021/08/25 16:07:38;;;;;;;1.67;1.27;;;;;;;17.99;77.41;101491.75;2617065;47;20175;-78
2021/08/25 16:10:05;;;;;;;1.33;1.23;;;;;;;18.00;77.23;101486.56;2617576;54;20132;-76
2021/08/25 16:12:30;;;;;;;1.90;1.60;;;;;;;17.80;78.20;101488.31;2616952;54;20170;-77
2021/08/25 16:14:57;;;;;;;1.93;1.50;;;;;;;17.76;78.31;101475.34;2617124;46;20127;-74
2021/08/25 16:17:23;;;;;;;1.87;1.40;;;;;;;17.72;78.63;101479.66;2616949;54;20271;-77
2021/08/25 16:19:50;;;;;;;1.67;1.20;;;;;;;17.78;77.70;101471.88;2617453;54;20120;-75
2021/08/25 16:22:15;;;;;;;1.67;1.43;;;;;;;17.76;77.34;101473.63;2617718;31;20713;-77
2021/08/25 16:24:40;;;;;;;2.90;1.63;;;;;;;17.78;77.02;101458.94;2617151;46;20131;-74
2021/08/25 16:27:08;;;;;;;2.00;1.50;;;;;;;17.71;77.25;101453.75;2617220;46;20162;-78
2021/08/25 16:29:33;;;;;;;3.73;1.57;;;;;;;17.84;76.49;101458.94;2650724;36;20229;-78
2021/08/25 16:31:59;;;;;;;3.10;1.50;;;;;;;17.83;76.33;101456.34;2616862;54;20821;-76
2021/08/25 16:34:24;;;;;;;3.53;1.87;;;;;;;17.89;76.46;101453.75;2617091;54;20150;-77
2021/08/25 16:36:49;;;;;;;2.37;1.47;;;;;;;17.89;76.49;101445.97;2616317;54;20231;-78
2021/08/25 16:39:15;;;;;;;2.93;1.80;;;;;;;18.02;75.30;101450.28;2617571;47;20209;-77
2021/08/25 16:41:40;;;;;;;2.80;2.07;;;;;;;17.73;76.89;101450.28;2617253;46;20230;-77
2021/08/25 16:44:06;;;;;;;3.43;1.77;;;;;;;17.83;76.01;101436.47;2617529;47;20128;-77
2021/08/25 16:46:31;;;;;;;4.00;1.93;;;;;;;17.91;75.79;101437.34;2616505;54;20180;-77
2021/08/25 16:48:56;;;;;;;2.57;1.60;;;;;;;17.85;76.38;101434.75;2616865;46;20189;-77
2021/08/25 16:51:21;;;;;;;3.47;1.87;;;;;;;17.86;76.34;101436.47;2616493;54;20112;-75
2021/08/25 16:53:47;;;;;;;2.90;1.90;;;;;;;17.75;77.23;101438.22;2616506;54;20258;-77
2021/08/25 16:56:12;;;;;;;4.27;1.90;;;;;;;17.95;77.00;101430.41;2616728;54;20143;-77
2021/08/25 16:58:37;;;;;;;3.70;1.73;;;;;;;17.77;77.29;101427.88;2616929;47;20242;-76
2021/08/25 17:01:02;;;;;;;2.50;2.00;;;;;;;17.71;78.03;101426.13;2617073;39;20615;-77
2021/08/25 17:03:28;;;;;;;3.40;1.70;;;;;;;17.68;78.46;101422.69;2617020;46;20194;-78
2021/08/25 17:05:57;;;;;;;3.03;1.50;;;;;;;17.65;78.51;101409.72;2616705;54;20172;-76
2021/08/25 17:08:30;;;;;;;3.87;2.07;;;;;;;17.56;79.18;101414.91;2616980;54;20662;-75
2021/08/25 17:10:56;;;;;;;2.90;2.07;;;;;;;17.40;79.80;101413.19;2616854;54;20123;-77
2021/08/25 17:13:21;;;;;;;2.90;1.83;;;;;;;17.49;80.08;101405.38;2616933;54;20152;-77
2021/08/25 17:15:47;;;;;;;1.93;1.57;;;;;;;17.43;79.60;101385.53;2633861;36;20198;-76
2021/08/25 17:18:13;;;;;;;1.90;1.60;;;;;;;17.37;79.99;101384.66;2616083;54;20159;-76
2021/08/25 17:20:38;;;;;;;2.50;1.77;;;;;;;17.46;79.73;101380.34;2616981;54;20936;-77
2021/08/25 17:23:04;;;;;;;1.77;1.30;;;;;;;17.49;79.97;101380.34;2616754;54;20175;-76
2021/08/25 17:25:29;;;;;;;3.00;1.70;;;;;;;17.44;79.66;101379.50;2617376;39;20786;-76
2021/08/25 17:27:54;;;;;;;2.53;1.90;;;;;;;17.40;80.53;101380.34;2617627;54;20166;-78
2021/08/25 17:30:20;;;;;;;2.53;1.30;;;;;;;17.50;79.54;101370.88;2651768;36;20222;-76
2021/08/25 17:32:45;;;;;;;2.77;1.40;;;;;;;17.37;79.79;101362.19;2616429;39;20215;-78
2021/08/25 17:35:12;;;;;;;2.60;1.43;;;;;;;17.27;80.70;101370.81;2616188;54;20644;-76
2021/08/25 17:37:38;;;;;;;3.40;1.43;;;;;;;17.24;80.50;101365.66;2616139;54;20193;-76
2021/08/25 17:40:05;;;;;;;1.20;1.10;;;;;;;17.29;80.58;101369.13;2615535;54;20195;-74
2021/08/25 17:42:30;;;;;;;2.37;1.33;;;;;;;17.18;81.38;101363.03;2616115;54;20198;-72
2021/08/25 17:44:55;;;;;;;1.37;1.20;;;;;;;17.30;80.90;101357.00;2615654;54;20921;-74
2021/08/25 17:47:22;;;;;;;1.20;0.97;;;;;;;17.18;81.34;101359.63;2615475;54;20120;-73
2021/08/25 17:49:48;;;;;;;2.70;1.30;;;;;;;17.09;81.53;101352.69;2616240;54;20112;-74
2021/08/25 17:52:13;;;;;;;3.33;1.10;;;;;;;17.10;81.94;101348.38;2615915;54;20154;-76
2021/08/25 17:54:38;;;;;;;1.43;1.10;;;;;;;17.24;81.13;101342.38;2616720;54;20135;-77
2021/08/25 17:57:04;;;;;;;1.27;1.00;;;;;;;17.03;81.79;101347.50;2617821;54;20139;-78
2021/08/25 17:59:29;;;;;;;1.67;0.90;;;;;;;17.03;82.35;101346.63;2616986;54;20130;-79
2021/08/25 18:01:55;;;;;;;1.67;1.10;;;;;;;17.07;82.05;101341.47;2616315;54;20169;-76
2021/08/25 18:04:24;;;;;;;1.23;0.80;;;;;;;17.20;81.55;101347.53;2616282;54;20171;-77
2021/08/25 18:06:50;;;;;;;1.03;0.83;;;;;;;17.11;81.69;101345.78;2616363;54;20242;-76
2021/08/25 18:09:16;;;;;;;0.70;0.70;;;;;;;16.99;82.55;101339.75;2616246;54;20131;-75
2021/08/25 18:11:42;;;;;;;2.50;0.90;;;;;;;17.03;82.08;101331.09;2616076;54;20131;-76
2021/08/25 18:14:08;;;;;;;0.83;0.70;;;;;;;17.18;81.41;101333.72;2616469;54;20686;-75
2021/08/25 18:16:33;;;;;;;1.10;0.67;;;;;;;17.12;81.96;101320.75;2616042;54;20128;-76
2021/08/25 18:18:58;;;;;;;1.30;0.70;;;;;;;17.16;81.83;101319.91;2616320;31;20636;-76
2021/08/25 18:21:26;;;;;;;0.93;0.93;;;;;;;17.19;82.17;101318.19;2616043;54;20155;-75
2021/08/25 18:23:56;;;;;;;0.67;0.60;;;;;;;17.10;81.84;101314.72;2616201;54;20152;-73
2021/08/25 18:26:23;;;;;;;1.53;0.70;;;;;;;17.14;82.12;101322.47;2616576;39;20570;-76